createdAt,value
2023-03-16T00:00:42.900Z,0.71
2023-03-16T00:03:10.601Z,0.68
2023-03-16T00:05:37.516Z,0.62
2023-03-16T00:08:04.394Z,0.67
2023-03-16T00:10:30.830Z,0.67
2023-03-16T00:12:57.604Z,0.66
2023-03-16T00:15:24.301Z,0.67
2023-03-16T00:17:50.706Z,0.68
2023-03-16T00:20:18.555Z,0.68
2023-03-16T00:22:45.065Z,0.69
2023-03-16T00:25:14.587Z,0.60
2023-03-16T00:27:41.556Z,0.45
2023-03-16T00:30:08.906Z,0.49
2023-03-16T00:32:37.485Z,0.42
2023-03-16T00:35:07.356Z,0.41
2023-03-16T00:37:37.628Z,0.39
2023-03-16T00:40:06.028Z,0.34
2023-03-16T00:42:34.124Z,0.42
2023-03-16T00:45:01.703Z,0.43
2023-03-16T00:47:31.425Z,0.40
2023-03-16T00:49:59.017Z,0.46
2023-03-16T00:52:27.470Z,0.48
2023-03-16T00:54:55.358Z,0.39
2023-03-16T00:57:25.111Z,0.35
2023-03-16T00:59:52.720Z,0.41
2023-03-16T01:02:23.322Z,0.34
2023-03-16T01:04:50.657Z,0.32
2023-03-16T01:07:18.743Z,0.31
2023-03-16T01:09:45.437Z,0.38
2023-03-16T01:12:14.657Z,0.25
2023-03-16T01:14:42.148Z,0.35
2023-03-16T01:17:09.748Z,0.35
2023-03-16T01:19:37.364Z,0.24
2023-03-16T01:22:05.820Z,0.16
2023-03-16T01:24:34.087Z,0.25
2023-03-16T01:27:00.525Z,0.18
2023-03-16T01:29:27.340Z,0.13
2023-03-16T01:31:56.456Z,0.05
2023-03-16T01:34:23.321Z,-0.01
2023-03-16T01:36:51.053Z,0.00
2023-03-16T01:39:25.881Z,0.08
2023-03-16T01:41:52.407Z,0.17
2023-03-16T01:44:24.457Z,0.29
2023-03-16T01:46:51.318Z,0.49
2023-03-16T01:49:23.936Z,0.63
2023-03-16T01:51:59.619Z,0.67
2023-03-16T01:54:48.868Z,0.69
2023-03-16T01:57:19.576Z,0.79
2023-03-16T02:00:10.943Z,0.76
2023-03-16T02:02:56.474Z,0.79
2023-03-16T02:05:42.238Z,0.84
2023-03-16T02:08:12.626Z,0.78
2023-03-16T02:10:40.373Z,0.83
2023-03-16T02:13:07.212Z,0.79
2023-03-16T02:15:35.961Z,0.75
2023-03-16T02:18:02.915Z,0.76
2023-03-16T02:20:42.737Z,0.81
2023-03-16T02:23:18.533Z,0.84
2023-03-16T02:25:56.890Z,0.91
2023-03-16T02:28:45.249Z,0.92
2023-03-16T02:31:12.281Z,0.89
2023-03-16T02:33:39.961Z,1.01
2023-03-16T02:36:08.785Z,1.05
2023-03-16T02:38:35.715Z,1.05
2023-03-16T02:41:14.664Z,1.12
2023-03-16T02:43:56.722Z,1.07
2023-03-16T02:46:29.303Z,1.08
2023-03-16T02:49:03.041Z,1.04
2023-03-16T02:51:30.498Z,0.96
2023-03-16T02:53:57.111Z,0.84
2023-03-16T02:56:25.075Z,0.87
2023-03-16T02:58:51.816Z,0.89
2023-03-16T03:01:19.848Z,0.91
2023-03-16T03:03:46.521Z,0.93
2023-03-16T03:06:12.937Z,0.92
2023-03-16T03:08:40.004Z,0.94
2023-03-16T03:11:06.500Z,0.91
2023-03-16T03:13:33.172Z,0.90
2023-03-16T03:16:00.100Z,0.83
2023-03-16T03:18:28.182Z,0.78
2023-03-16T03:20:54.631Z,0.84
2023-03-16T03:23:21.281Z,0.82
2023-03-16T03:25:47.947Z,0.82
2023-03-16T03:28:15.554Z,0.82
2023-03-16T03:30:42.428Z,0.82
2023-03-16T03:33:09.303Z,0.72
2023-03-16T03:35:35.808Z,0.69
2023-03-16T03:38:02.408Z,0.73
2023-03-16T03:40:29.916Z,0.71
2023-03-16T03:43:01.442Z,0.68
2023-03-16T03:45:29.141Z,0.71
2023-03-16T03:47:56.250Z,0.75
2023-03-16T03:50:23.825Z,0.77
2023-03-16T03:52:57.362Z,0.87
2023-03-16T03:55:24.090Z,0.86
2023-03-16T03:57:50.993Z,0.82
2023-03-16T04:00:20.857Z,0.77
2023-03-16T04:02:48.123Z,0.80
2023-03-16T04:05:22.590Z,0.83
2023-03-16T04:07:55.028Z,0.89
2023-03-16T04:10:21.472Z,0.78
2023-03-16T04:12:48.065Z,0.82
2023-03-16T04:15:14.624Z,0.81
2023-03-16T04:17:59.546Z,0.80
2023-03-16T04:20:26.400Z,0.80
2023-03-16T04:22:58.405Z,0.74
2023-03-16T04:25:26.649Z,0.70
2023-03-16T04:27:53.552Z,0.54
2023-03-16T04:30:23.395Z,0.57
2023-03-16T04:32:54.314Z,0.54
2023-03-16T04:35:22.202Z,0.52
2023-03-16T04:37:52.935Z,0.45
2023-03-16T04:40:24.438Z,0.52
2023-03-16T04:42:58.022Z,0.44
2023-03-16T04:45:24.477Z,0.42
2023-03-16T04:47:54.121Z,0.40
2023-03-16T04:50:20.888Z,0.45
2023-03-16T04:52:51.739Z,0.45
2023-03-16T04:55:18.774Z,0.46
2023-03-16T04:57:45.945Z,0.52
2023-03-16T05:00:18.772Z,0.45
2023-03-16T05:02:53.628Z,0.41
2023-03-16T05:05:21.608Z,0.46
2023-03-16T05:07:49.218Z,0.48
2023-03-16T05:10:18.840Z,0.52
2023-03-16T05:12:47.413Z,0.67
2023-03-16T05:15:14.822Z,0.77
2023-03-16T05:17:43.148Z,0.98
2023-03-16T05:20:14.714Z,1.01
2023-03-16T05:22:56.937Z,0.97
2023-03-16T05:25:32.721Z,0.97
2023-03-16T05:28:03.865Z,1.00
2023-03-16T05:30:36.869Z,1.03
2023-03-16T05:33:06.227Z,1.03
2023-03-16T05:35:33.412Z,1.05
2023-03-16T05:38:04.792Z,1.06
2023-03-16T05:40:33.826Z,1.23
2023-03-16T05:43:10.483Z,1.27
2023-03-16T05:45:43.837Z,1.32
2023-03-16T05:48:17.668Z,1.34
2023-03-16T05:50:48.260Z,1.42
2023-03-16T05:53:18.263Z,1.50
2023-03-16T05:55:45.479Z,1.52
2023-03-16T05:58:15.587Z,1.55
2023-03-16T06:00:43.759Z,1.59
2023-03-16T06:03:31.321Z,1.65
2023-03-16T06:05:59.164Z,1.66
2023-03-16T06:08:32.578Z,1.72
2023-03-16T06:11:07.958Z,1.74
2023-03-16T06:13:34.581Z,1.75
2023-03-16T06:16:02.154Z,1.86
2023-03-16T06:18:29.210Z,1.94
2023-03-16T06:20:56.299Z,2.01
2023-03-16T06:23:23.072Z,2.09
2023-03-16T06:25:51.083Z,2.09
2023-03-16T06:28:22.071Z,2.12
2023-03-16T06:30:49.068Z,2.10
2023-03-16T06:33:15.585Z,2.11
2023-03-16T06:35:42.255Z,2.13
2023-03-16T06:38:15.749Z,2.20
2023-03-16T06:41:02.624Z,2.21
2023-03-16T06:43:31.318Z,2.23
2023-03-16T06:45:58.834Z,2.22
2023-03-16T06:48:25.220Z,2.26
2023-03-16T06:50:51.759Z,2.23
2023-03-16T06:53:22.731Z,2.29
2023-03-16T06:55:49.724Z,2.32
2023-03-16T06:58:16.693Z,2.31
2023-03-16T07:00:44.732Z,2.34
2023-03-16T07:03:11.222Z,2.37
2023-03-16T07:05:40.474Z,2.43
2023-03-16T07:08:09.222Z,2.50
2023-03-16T07:10:35.975Z,2.57
2023-03-16T07:13:02.347Z,2.61
2023-03-16T07:15:28.915Z,2.64
2023-03-16T07:17:57.008Z,2.70
2023-03-16T07:20:24.570Z,2.73
2023-03-16T07:22:50.978Z,2.77
2023-03-16T07:25:17.481Z,2.89
2023-03-16T07:27:49.575Z,2.78
2023-03-16T07:30:22.355Z,2.79
2023-03-16T07:32:49.805Z,2.80
2023-03-16T07:35:17.901Z,2.65
2023-03-16T07:37:45.049Z,2.72
2023-03-16T07:40:12.288Z,2.69
2023-03-16T07:42:39.250Z,2.72
2023-03-16T07:45:10.976Z,2.80
2023-03-16T07:47:37.420Z,3.08
2023-03-16T07:50:13.289Z,3.44
2023-03-16T07:52:43.794Z,3.55
2023-03-16T07:55:11.773Z,3.92
2023-03-16T07:57:39.765Z,4.05
2023-03-16T08:00:07.803Z,4.20
2023-03-16T08:02:39.726Z,4.23
2023-03-16T08:05:12.817Z,4.26
2023-03-16T08:07:43.226Z,4.27
2023-03-16T08:10:13.632Z,4.42
2023-03-16T08:12:49.585Z,4.61
2023-03-16T08:15:16.241Z,4.66
2023-03-16T08:17:43.847Z,4.77
2023-03-16T08:20:15.490Z,4.88
2023-03-16T08:22:46.134Z,4.88
2023-03-16T08:25:15.623Z,5.18
2023-03-16T08:27:53.030Z,5.38
2023-03-16T08:30:19.685Z,5.61
2023-03-16T08:32:54.470Z,5.71
2023-03-16T08:35:21.144Z,5.94
2023-03-16T08:37:49.470Z,6.02
2023-03-16T08:40:19.450Z,6.16
2023-03-16T08:42:50.039Z,6.31
2023-03-16T08:45:17.390Z,6.36
2023-03-16T08:47:44.373Z,6.42
2023-03-16T08:50:15.747Z,6.40
2023-03-16T08:52:42.810Z,6.57
2023-03-16T08:55:10.963Z,6.61
2023-03-16T08:57:39.177Z,6.73
2023-03-16T09:00:12.887Z,6.76
2023-03-16T09:02:40.649Z,6.73
2023-03-16T09:05:12.009Z,6.75
2023-03-16T09:07:39.475Z,6.88
2023-03-16T09:10:07.177Z,6.83
2023-03-16T09:12:37.824Z,6.97
2023-03-16T09:15:05.910Z,7.16
2023-03-16T09:17:33.307Z,7.09
2023-03-16T09:20:11.526Z,7.13
2023-03-16T09:22:46.857Z,7.19
2023-03-16T09:25:14.424Z,7.39
2023-03-16T09:27:40.861Z,7.45
2023-03-16T09:30:09.195Z,7.53
2023-03-16T09:32:37.258Z,7.53
2023-03-16T09:35:05.713Z,7.46
2023-03-16T09:37:44.572Z,7.46
2023-03-16T09:40:25.297Z,7.45
2023-03-16T09:42:57.844Z,7.55
2023-03-16T09:45:40.287Z,7.53
2023-03-16T09:48:10.446Z,7.48
2023-03-16T09:50:48.648Z,7.53
2023-03-16T09:53:31.649Z,7.55
2023-03-16T09:56:03.273Z,7.48
2023-03-16T09:58:32.102Z,7.65
2023-03-16T10:01:26.669Z,7.69
2023-03-16T10:04:14.376Z,7.77
2023-03-16T10:06:54.448Z,7.89
2023-03-16T10:09:38.420Z,8.07
2023-03-16T10:12:08.636Z,8.16
2023-03-16T10:14:48.074Z,8.13
2023-03-16T10:17:19.059Z,8.20
2023-03-16T10:20:00.017Z,8.29
2023-03-16T10:22:35.591Z,8.46
2023-03-16T10:25:22.188Z,8.43
2023-03-16T10:27:49.261Z,8.34
2023-03-16T10:30:19.718Z,8.51
2023-03-16T10:32:47.067Z,8.50
2023-03-16T10:35:29.186Z,8.21
2023-03-16T10:37:57.115Z,8.18
2023-03-16T10:40:23.860Z,8.33
2023-03-16T10:42:50.445Z,8.49
2023-03-16T10:45:29.952Z,8.57
2023-03-16T10:48:07.740Z,8.62
2023-03-16T10:50:34.404Z,8.88
2023-03-16T10:53:02.678Z,8.90
2023-03-16T10:55:34.745Z,8.89
2023-03-16T10:58:01.348Z,9.15
2023-03-16T11:00:34.518Z,9.51
2023-03-16T11:03:01.248Z,9.59
2023-03-16T11:05:33.008Z,9.38
2023-03-16T11:08:09.559Z,9.53
2023-03-16T11:10:56.277Z,9.65
2023-03-16T11:13:26.199Z,9.82
2023-03-16T11:16:01.610Z,10.01
2023-03-16T11:18:32.292Z,10.06
2023-03-16T11:21:06.628Z,10.08
2023-03-16T11:23:36.891Z,10.43
2023-03-16T11:26:14.143Z,10.70
2023-03-16T11:28:45.781Z,11.04
2023-03-16T11:31:42.838Z,10.88
2023-03-16T11:34:15.883Z,10.83
2023-03-16T11:36:59.263Z,11.16
2023-03-16T11:39:52.693Z,11.17
2023-03-16T11:42:30.593Z,11.31
2023-03-16T11:45:17.287Z,11.21
2023-03-16T11:47:49.773Z,10.99
2023-03-16T11:50:45.700Z,10.61
2023-03-16T11:53:36.086Z,10.98
2023-03-16T11:56:21.981Z,11.02
2023-03-16T11:59:18.614Z,10.93
2023-03-16T12:02:05.128Z,11.02
2023-03-16T12:05:19.244Z,10.93
2023-03-16T12:08:18.951Z,11.08
2023-03-16T12:10:51.997Z,11.20
2023-03-16T12:13:33.613Z,10.82
2023-03-16T12:16:11.643Z,10.60
2023-03-16T12:18:47.784Z,10.64
2023-03-16T12:21:20.164Z,10.94
2023-03-16T12:23:53.318Z,11.33
2023-03-16T12:26:23.380Z,11.86
2023-03-16T12:28:51.909Z,12.31
2023-03-16T12:31:45.847Z,12.00
2023-03-16T12:34:25.638Z,12.07
2023-03-16T12:37:25.186Z,11.96
2023-03-16T12:39:51.604Z,12.04
2023-03-16T12:42:42.356Z,12.17
2023-03-16T12:45:17.965Z,12.09
2023-03-16T12:47:50.464Z,12.05
2023-03-16T12:50:20.761Z,11.93
2023-03-16T12:52:50.657Z,11.58
2023-03-16T12:55:25.049Z,11.77
2023-03-16T12:58:00.228Z,11.59
2023-03-16T13:00:40.767Z,11.63
2023-03-16T13:03:15.391Z,11.29
2023-03-16T13:05:55.363Z,11.45
2023-03-16T13:08:23.290Z,11.46
2023-03-16T13:11:06.489Z,11.17
2023-03-16T13:13:34.105Z,11.22
2023-03-16T13:16:09.415Z,11.00
2023-03-16T13:18:40.124Z,11.20
2023-03-16T13:21:37.730Z,11.17
2023-03-16T13:24:30.881Z,10.84
2023-03-16T13:27:15.560Z,10.66
2023-03-16T13:29:53.146Z,10.55
2023-03-16T13:32:21.389Z,10.52
2023-03-16T13:34:50.749Z,10.52
2023-03-16T13:37:20.414Z,10.38
2023-03-16T13:39:55.269Z,10.22
2023-03-16T13:42:23.969Z,9.97
2023-03-16T13:44:56.653Z,10.06
2023-03-16T13:47:26.430Z,9.93
2023-03-16T13:49:58.826Z,9.81
2023-03-16T13:52:31.280Z,9.82
2023-03-16T13:54:59.383Z,9.82
2023-03-16T13:57:29.404Z,9.79
2023-03-16T14:00:20.375Z,9.72
2023-03-16T14:02:52.523Z,9.60
2023-03-16T14:05:24.548Z,9.60
2023-03-16T14:07:51.329Z,9.59
2023-03-16T14:10:18.653Z,9.57
2023-03-16T14:12:56.896Z,9.50
2023-03-16T14:15:26.651Z,9.59
2023-03-16T14:17:53.696Z,9.73
2023-03-16T14:20:23.208Z,9.87
2023-03-16T14:22:53.643Z,9.96
2023-03-16T14:25:25.488Z,10.14
2023-03-16T14:28:01.527Z,10.51
2023-03-16T14:30:30.363Z,10.62
2023-03-16T14:33:05.545Z,10.90
2023-03-16T14:35:41.376Z,10.99
2023-03-16T14:38:36.020Z,11.10
2023-03-16T14:41:15.275Z,11.23
2023-03-16T14:43:47.842Z,10.94
2023-03-16T14:46:20.361Z,10.91
2023-03-16T14:48:46.814Z,10.81
2023-03-16T14:51:14.625Z,10.37
2023-03-16T14:53:41.134Z,10.27
2023-03-16T14:56:13.582Z,10.15
2023-03-16T14:58:41.193Z,10.30
2023-03-16T15:01:17.838Z,10.21
2023-03-16T15:03:45.345Z,10.15
2023-03-16T15:06:11.863Z,10.01
2023-03-16T15:08:44.263Z,9.87
2023-03-16T15:11:11.267Z,9.96
2023-03-16T15:13:40.566Z,9.82
2023-03-16T15:16:11.433Z,9.77
2023-03-16T15:18:39.775Z,9.72
2023-03-16T15:21:21.007Z,9.64
2023-03-16T15:23:48.196Z,9.65
2023-03-16T15:26:19.040Z,9.63
2023-03-16T15:28:45.454Z,9.63
2023-03-16T15:31:14.058Z,9.59
2023-03-16T15:33:41.425Z,9.61
2023-03-16T15:36:19.873Z,9.58
2023-03-16T15:38:51.485Z,9.51
2023-03-16T15:41:18.123Z,9.52
2023-03-16T15:43:45.702Z,9.55
2023-03-16T15:46:12.277Z,9.50
2023-03-16T15:48:39.244Z,9.41
2023-03-16T15:51:19.513Z,9.35
2023-03-16T15:53:50.847Z,9.43
2023-03-16T15:56:23.759Z,9.41
2023-03-16T15:58:50.736Z,9.47
2023-03-16T16:01:22.073Z,9.42
2023-03-16T16:03:51.763Z,9.38
2023-03-16T16:06:18.574Z,9.37
2023-03-16T16:08:45.302Z,9.26
2023-03-16T16:11:23.711Z,9.26
2023-03-16T16:13:51.462Z,9.27
2023-03-16T16:16:19.840Z,9.27
2023-03-16T16:18:48.242Z,9.19
2023-03-16T16:21:23.222Z,9.06
2023-03-16T16:23:52.090Z,9.08
2023-03-16T16:26:52.183Z,9.06
2023-03-16T16:29:23.886Z,9.05
2023-03-16T16:31:53.690Z,9.04
2023-03-16T16:34:24.116Z,9.02
2023-03-16T16:36:51.304Z,8.94
2023-03-16T16:39:17.771Z,8.98
2023-03-16T16:41:44.806Z,8.93
2023-03-16T16:44:23.418Z,8.93
2023-03-16T16:46:51.047Z,8.91
2023-03-16T16:49:28.418Z,8.93
2023-03-16T16:51:55.525Z,8.93
2023-03-16T16:54:29.010Z,8.92
2023-03-16T16:56:57.474Z,8.77
2023-03-16T16:59:28.357Z,8.69
2023-03-16T17:01:56.615Z,8.66
2023-03-16T17:04:28.528Z,8.70
2023-03-16T17:06:59.025Z,8.65
2023-03-16T17:09:27.678Z,8.55
2023-03-16T17:11:58.735Z,8.58
2023-03-16T17:14:28.065Z,8.57
2023-03-16T17:16:55.301Z,8.59
2023-03-16T17:19:24.784Z,8.55
2023-03-16T17:21:52.736Z,8.51
2023-03-16T17:24:19.206Z,8.57
2023-03-16T17:26:49.301Z,8.66
2023-03-16T17:29:18.689Z,8.52
2023-03-16T17:31:45.144Z,8.40
2023-03-16T17:34:18.406Z,8.42
2023-03-16T17:36:46.233Z,8.42
2023-03-16T17:39:21.118Z,8.43
2023-03-16T17:42:01.825Z,8.28
2023-03-16T17:44:34.627Z,8.31
2023-03-16T17:47:01.568Z,8.32
2023-03-16T17:49:28.592Z,8.28
2023-03-16T17:51:55.978Z,8.25
2023-03-16T17:54:23.144Z,8.24
2023-03-16T17:56:51.602Z,8.17
2023-03-16T17:59:21.021Z,8.22
2023-03-16T18:01:48.297Z,8.20
2023-03-16T18:04:20.991Z,8.05
2023-03-16T18:06:48.071Z,8.05
2023-03-16T18:09:16.013Z,7.98
2023-03-16T18:11:47.434Z,8.08
2023-03-16T18:14:24.540Z,8.05
2023-03-16T18:16:51.378Z,8.00
2023-03-16T18:19:24.423Z,8.04
2023-03-16T18:21:53.665Z,7.98
2023-03-16T18:24:22.068Z,7.95
2023-03-16T18:26:48.701Z,7.94
2023-03-16T18:29:15.157Z,7.87
2023-03-16T18:31:42.380Z,7.89
2023-03-16T18:34:21.003Z,7.91
2023-03-16T18:36:47.545Z,7.93
2023-03-16T18:39:22.084Z,7.96
2023-03-16T18:41:48.567Z,7.91
2023-03-16T18:44:20.668Z,7.91
2023-03-16T18:46:48.742Z,7.83
2023-03-16T18:49:26.484Z,7.79
2023-03-16T18:51:54.543Z,7.75
2023-03-16T18:54:35.293Z,7.76
2023-03-16T18:57:04.345Z,7.73
2023-03-16T18:59:31.837Z,7.73
2023-03-16T19:01:58.522Z,7.67
2023-03-16T19:04:29.128Z,7.71
2023-03-16T19:06:56.743Z,7.64
2023-03-16T19:09:27.704Z,7.64
2023-03-16T19:11:54.653Z,7.61
2023-03-16T19:14:31.124Z,7.56
2023-03-16T19:16:57.695Z,7.54
2023-03-16T19:19:24.712Z,7.58
2023-03-16T19:22:15.761Z,7.57
2023-03-16T19:24:52.460Z,7.65
2023-03-16T19:27:22.817Z,7.53
2023-03-16T19:29:52.122Z,7.54
2023-03-16T19:32:20.852Z,7.55
2023-03-16T19:34:48.025Z,7.56
2023-03-16T19:37:15.629Z,7.50
2023-03-16T19:39:43.580Z,7.44
2023-03-16T19:42:21.278Z,7.44
2023-03-16T19:44:49.826Z,7.45
2023-03-16T19:47:30.832Z,7.37
2023-03-16T19:49:58.832Z,7.37
2023-03-16T19:52:28.101Z,7.29
2023-03-16T19:54:54.656Z,7.39
2023-03-16T19:57:21.414Z,7.40
2023-03-16T19:59:50.187Z,7.37
2023-03-16T20:02:36.992Z,7.35
2023-03-16T20:05:04.321Z,7.46
2023-03-16T20:07:31.232Z,7.42
2023-03-16T20:09:57.654Z,7.34
2023-03-16T20:12:27.003Z,7.30
2023-03-16T20:14:55.987Z,7.27
2023-03-16T20:17:26.104Z,7.23
2023-03-16T20:19:53.006Z,7.30
2023-03-16T20:22:24.837Z,7.35
2023-03-16T20:24:52.971Z,7.32
2023-03-16T20:27:21.849Z,7.27
2023-03-16T20:29:49.141Z,7.32
2023-03-16T20:32:31.400Z,7.22
2023-03-16T20:34:58.116Z,7.17
2023-03-16T20:37:27.971Z,7.17
2023-03-16T20:39:56.454Z,7.09
2023-03-16T20:42:30.285Z,7.03
2023-03-16T20:44:57.612Z,7.08
2023-03-16T20:47:25.244Z,7.01
2023-03-16T20:49:52.737Z,7.00
2023-03-16T20:52:22.026Z,6.99
2023-03-16T20:54:49.957Z,6.96
2023-03-16T20:57:21.083Z,6.95
2023-03-16T20:59:49.270Z,6.91
2023-03-16T21:02:27.278Z,6.92
2023-03-16T21:04:58.704Z,6.86
2023-03-16T21:07:25.573Z,6.87
2023-03-16T21:09:52.148Z,6.81
2023-03-16T21:12:24.544Z,6.83
2023-03-16T21:14:51.781Z,6.90
2023-03-16T21:17:26.635Z,6.90
2023-03-16T21:19:53.398Z,6.94
2023-03-16T21:22:36.605Z,6.89
2023-03-16T21:25:03.123Z,6.93
2023-03-16T21:27:34.546Z,6.89
2023-03-16T21:30:26.092Z,6.82
2023-03-16T21:32:53.895Z,6.88
2023-03-16T21:35:22.807Z,6.95
2023-03-16T21:37:49.410Z,6.91
2023-03-16T21:40:21.555Z,6.88
2023-03-16T21:42:48.302Z,6.90
2023-03-16T21:45:15.806Z,6.95
2023-03-16T21:47:43.344Z,6.97
2023-03-16T21:50:20.317Z,6.91
2023-03-16T21:52:47.273Z,6.89
2023-03-16T21:55:23.819Z,6.79
2023-03-16T21:57:51.157Z,6.79
2023-03-16T22:00:23.234Z,6.83
2023-03-16T22:02:53.121Z,6.81
2023-03-16T22:05:40.148Z,6.87
2023-03-16T22:08:22.278Z,6.78
2023-03-16T22:10:49.570Z,6.76
2023-03-16T22:13:16.327Z,6.81
2023-03-16T22:15:43.610Z,6.86
2023-03-16T22:18:29.697Z,6.87
2023-03-16T22:20:57.492Z,6.86
2023-03-16T22:23:34.308Z,6.77
2023-03-16T22:26:02.479Z,6.75
2023-03-16T22:28:29.926Z,6.80
2023-03-16T22:30:58.263Z,6.79
2023-03-16T22:33:31.626Z,6.83
2023-03-16T22:36:11.426Z,6.83
2023-03-16T22:38:40.051Z,6.85
2023-03-16T22:41:07.601Z,6.87
2023-03-16T22:43:36.949Z,6.84
2023-03-16T22:46:04.059Z,6.83
2023-03-16T22:48:31.865Z,6.79
2023-03-16T22:51:03.855Z,6.68
2023-03-16T22:53:41.350Z,6.63
2023-03-16T22:56:10.231Z,6.74
2023-03-16T22:58:40.649Z,6.71
2023-03-16T23:01:17.756Z,6.62
2023-03-16T23:03:45.785Z,6.61
2023-03-16T23:06:17.404Z,6.58
2023-03-16T23:08:44.253Z,6.62
2023-03-16T23:11:29.870Z,6.61
2023-03-16T23:13:56.866Z,6.63
2023-03-16T23:16:41.926Z,6.55
2023-03-16T23:19:33.853Z,6.52
2023-03-16T23:22:03.424Z,6.58
2023-03-16T23:24:30.298Z,6.50
2023-03-16T23:26:57.659Z,6.55
2023-03-16T23:29:24.483Z,6.53
2023-03-16T23:31:51.258Z,6.49
2023-03-16T23:34:20.614Z,6.48
2023-03-16T23:36:47.290Z,6.47
2023-03-16T23:39:13.817Z,6.47
2023-03-16T23:41:44.258Z,6.46
2023-03-16T23:44:23.403Z,6.50
2023-03-16T23:46:50.829Z,6.44
2023-03-16T23:49:24.037Z,6.42
2023-03-16T23:51:51.070Z,6.37
2023-03-16T23:54:23.410Z,6.39
2023-03-16T23:56:50.607Z,6.40
2023-03-16T23:59:17.743Z,6.38
